Jackson, Michigan
Current Conditions -  °F | °C
As of 4:56 AM on Saturday 29 Nov 2014 (Local Time) from KJXN Reporting Station
Scattered Clouds Scattered Clouds  
Wind Chill: 19°   Ceiling: Unl
Heat Index: 29°   Visibility: 10mi
Dew Point: 23°   Wind: 12mph
Humidity: 78%   Direction: 150°SSE
Pressure: 29.92"   Gusts: NA
Location:  42.24°N, 84.4°W
Report Text: KJXN 290956Z 15010KT 10SM SCT110 M02/M05 A2992 RMK AO2 SLP145 T10171050
Loading
Personal Weather Stations






























Interactive Weather Map New forecast layout! Learn more

10-Day Weather Forecast

Advertisements
Track Severe Weather on mobile